Time;durP1;ratioP1;P1;durP2;ratioP2;P2;SDS_P1;SDS_P2;PMS_P1;PMS_P2;Temp;Humidity;BMP_temperature;BMP_pressure;BME280_temperature;BME280_humidity;BME280_pressure;Samples;Min_cycle;Max_cycle;Signal;HPM_P1;HPM_P2
2023/03/31 00:00:59;;;;;;;;;;;;;;;;;;5082788;28;19999;-57
2023/03/31 00:03:25;;;;;;;;;;;;;;;;;;5079396;28;19930;-56
2023/03/31 00:05:52;;;;;;;;;;;;;;;;;;5079520;28;19913;-57
2023/03/31 00:08:18;;;;;;;;;;;;;;;;;;5087429;28;19921;-57
2023/03/31 00:10:45;;;;;;;;;;;;;;;;;;5076939;28;20284;-56
2023/03/31 00:13:11;;;;;;;;;;;;;;;;;;5093275;28;19919;-56
2023/03/31 00:15:37;;;;;;;;;;;;;;;;;;5082381;28;19956;-57
2023/03/31 00:18:03;;;;;;;;;;;;;;;;;;5073134;28;21402;-57
2023/03/31 00:20:29;;;;;;;;;;;;;;;;;;5075098;28;19922;-57
2023/03/31 00:22:56;;;;;;;;;;;;;;;;;;5084799;28;19951;-57
2023/03/31 00:25:22;;;;;;;;;;;;;;;;;;5080053;28;19921;-56
2023/03/31 00:27:51;;;;;;;;;;;;;;;;;;5086786;28;20368;-57
2023/03/31 00:30:17;;;;;;;;;;;;;;;;;;5090209;28;19919;-57
2023/03/31 00:32:43;;;;;;;;;;;;;;;;;;5087388;28;19948;-57
2023/03/31 00:35:09;;;;;;;;;;;;;;;;;;5079277;28;19952;-57
2023/03/31 00:37:35;;;;;;;;;;;;;;;;;;5080243;28;19922;-57
2023/03/31 00:40:01;;;;;;;;;;;;;;;;;;5080511;28;20044;-56
2023/03/31 00:42:27;;;;;;;;;;;;;;;;;;5091970;28;20287;-57
2023/03/31 00:44:53;;;;;;;;;;;;;;;;;;5092464;28;19947;-56
2023/03/31 00:47:19;;;;;;;;;;;;;;;;;;5090848;28;19962;-56
2023/03/31 00:49:45;;;;;;;;;;;;;;;;;;5090126;28;20028;-57
2023/03/31 00:52:12;;;;;;;;;;;;;;;;;;5074040;28;20007;-56
2023/03/31 00:54:38;;;;;;;;;;;;;;;;;;5072454;28;19922;-56
2023/03/31 00:57:05;;;;;;;;;;;;;;;;;;5080851;28;20006;-57
2023/03/31 00:59:31;;;;;;;;;;;;;;;;;;5081941;28;19923;-56
2023/03/31 01:02:01;;;;;;;;;;;;;;;;;;5078488;28;19984;-57
2023/03/31 01:04:27;;;;;;;;;;;;;;;;;;5090830;28;19957;-57
2023/03/31 01:06:56;;;;;;;;;;;;;;;;;;5087066;28;19923;-57
2023/03/31 01:09:23;;;;;;;;;;;;;;;;;;5075482;28;19931;-56
2023/03/31 01:11:49;;;;;;;;;;;;;;;;;;5084138;28;20007;-57
2023/03/31 01:14:15;;;;;;;;;;;;;;;;;;5080926;28;20003;-57
2023/03/31 01:16:41;;;;;;;;;;;;;;;;;;5072616;28;19973;-57
2023/03/31 01:19:07;;;;;;;;;;;;;;;;;;5085489;28;19948;-56
2023/03/31 01:21:33;;;;;;;;;;;;;;;;;;5074707;28;20001;-56
2023/03/31 01:23:59;;;;;;;;;;;;;;;;;;5071754;28;19959;-56
2023/03/31 01:26:25;;;;;;;;;;;;;;;;;;5084584;28;19956;-57
2023/03/31 01:28:51;;;;;;;;;;;;;;;;;;5089947;28;19958;-57
2023/03/31 01:31:17;;;;;;;;;;;;;;;;;;5081265;28;19943;-57
2023/03/31 01:33:43;;;;;;;;;;;;;;;;;;5092388;28;19959;-56
2023/03/31 01:36:09;;;;;;;;;;;;;;;;;;5085635;28;19952;-57
2023/03/31 01:38:34;;;;;;;;;;;;;;;;;;5083182;28;19930;-57
2023/03/31 01:41:00;;;;;;;;;;;;;;;;;;5091263;28;19913;-55
2023/03/31 01:43:27;;;;;;;;;;;;;;;;;;5092037;28;19959;-57
2023/03/31 01:45:53;;;;;;;;;;;;;;;;;;5086240;28;19943;-57
2023/03/31 01:48:20;;;;;;;;;;;;;;;;;;5072558;28;20296;-56
2023/03/31 01:50:46;;;;;;;;;;;;;;;;;;5073424;28;19956;-57
2023/03/31 01:53:12;;;;;;;;;;;;;;;;;;5089635;28;19999;-56
2023/03/31 01:55:38;;;;;;;;;;;;;;;;;;5087987;28;20014;-57
2023/03/31 01:58:03;;;;;;;;;;;;;;;;;;5079234;28;19913;-57
2023/03/31 02:00:32;;;;;;;;;;;;;;;;;;5086493;28;19986;-57
2023/03/31 02:02:58;;;;;;;;;;;;;;;;;;5075958;28;19954;-56
2023/03/31 02:05:24;;;;;;;;;;;;;;;;;;5085598;28;19909;-57
2023/03/31 02:07:51;;;;;;;;;;;;;;;;;;5073443;28;19931;-57
2023/03/31 02:10:17;;;;;;;;;;;;;;;;;;5074637;28;20452;-56
2023/03/31 02:12:43;;;;;;;;;;;;;;;;;;5078671;28;19966;-55
2023/03/31 02:15:09;;;;;;;;;;;;;;;;;;5071273;28;19919;-57
2023/03/31 02:17:38;;;;;;;;;;;;;;;;;;5082649;28;19912;-57
2023/03/31 02:20:05;;;;;;;;;;;;;;;;;;5084748;28;19964;-56
2023/03/31 02:22:31;;;;;;;;;;;;;;;;;;5082575;28;19940;-57
2023/03/31 02:24:56;;;;;;;;;;;;;;;;;;5077056;28;20348;-57
2023/03/31 02:27:22;;;;;;;;;;;;;;;;;;5088934;28;20011;-56
2023/03/31 02:29:48;;;;;;;;;;;;;;;;;;5082692;28;19944;-57
2023/03/31 02:32:14;;;;;;;;;;;;;;;;;;5079862;28;19916;-57
2023/03/31 02:34:40;;;;;;;;;;;;;;;;;;5091772;28;19955;-56
2023/03/31 02:37:07;;;;;;;;;;;;;;;;;;5091788;28;20012;-57
2023/03/31 02:39:33;;;;;;;;;;;;;;;;;;5084801;28;19948;-57
2023/03/31 02:42:01;;;;;;;;;;;;;;;;;;5083981;28;19967;-56
2023/03/31 02:44:27;;;;;;;;;;;;;;;;;;5085631;28;19920;-57
2023/03/31 02:46:53;;;;;;;;;;;;;;;;;;5089070;28;19920;-57
2023/03/31 02:49:20;;;;;;;;;;;;;;;;;;5078693;28;19924;-57
2023/03/31 02:51:46;;;;;;;;;;;;;;;;;;5087102;28;19912;-57
2023/03/31 02:54:12;;;;;;;;;;;;;;;;;;5087440;28;19966;-57
2023/03/31 02:56:38;;;;;;;;;;;;;;;;;;5083581;28;19913;-57
2023/03/31 02:59:04;;;;;;;;;;;;;;;;;;5093786;28;20353;-57
2023/03/31 03:01:30;;;;;;;;;;;;;;;;;;5091748;28;20054;-57
2023/03/31 03:03:55;;;;;;;;;;;;;;;;;;5079154;28;20093;-57
2023/03/31 03:06:22;;;;;;;;;;;;;;;;;;5078172;28;19912;-57
2023/03/31 03:08:54;;;;;;;;;;;;;;;;;;5090552;28;19916;-57
2023/03/31 03:11:20;;;;;;;;;;;;;;;;;;5074996;28;19924;-57
2023/03/31 03:13:46;;;;;;;;;;;;;;;;;;5090022;28;19919;-56
2023/03/31 03:16:12;;;;;;;;;;;;;;;;;;5092268;28;20298;-56
2023/03/31 03:18:38;;;;;;;;;;;;;;;;;;5090738;28;19916;-57
2023/03/31 03:21:04;;;;;;;;;;;;;;;;;;5078761;28;19915;-57
2023/03/31 03:23:31;;;;;;;;;;;;;;;;;;5086239;28;20359;-57
2023/03/31 03:25:57;;;;;;;;;;;;;;;;;;5087192;28;19969;-57
2023/03/31 03:28:23;;;;;;;;;;;;;;;;;;5076533;28;19951;-57
2023/03/31 03:30:50;;;;;;;;;;;;;;;;;;5083845;28;19962;-57
2023/03/31 03:33:16;;;;;;;;;;;;;;;;;;5089664;28;19916;-57
2023/03/31 03:35:41;;;;;;;;;;;;;;;;;;5083143;28;20347;-57
2023/03/31 03:38:07;;;;;;;;;;;;;;;;;;5085678;28;19958;-57
2023/03/31 03:40:33;;;;;;;;;;;;;;;;;;5076481;28;20010;-57
2023/03/31 03:42:59;;;;;;;;;;;;;;;;;;5082387;28;19927;-56
2023/03/31 03:45:25;;;;;;;;;;;;;;;;;;5089582;28;20453;-57
2023/03/31 03:47:51;;;;;;;;;;;;;;;;;;5080031;28;20011;-57
2023/03/31 03:50:17;;;;;;;;;;;;;;;;;;5091751;28;20275;-56
2023/03/31 03:52:43;;;;;;;;;;;;;;;;;;5073643;28;19923;-57
2023/03/31 03:55:10;;;;;;;;;;;;;;;;;;5076473;28;19944;-57
2023/03/31 03:57:36;;;;;;;;;;;;;;;;;;5083621;28;19956;-56
2023/03/31 04:00:07;;;;;;;;;;;;;;;;;;5091260;28;20675;-57
2023/03/31 04:02:35;;;;;;;;;;;;;;;;;;5078634;28;19924;-57
2023/03/31 04:05:00;;;;;;;;;;;;;;;;;;5076276;28;20317;-56
2023/03/31 04:07:26;;;;;;;;;;;;;;;;;;5074769;28;19908;-56
2023/03/31 04:09:52;;;;;;;;;;;;;;;;;;5088322;28;19963;-57
2023/03/31 04:12:18;;;;;;;;;;;;;;;;;;5087872;28;20465;-57
2023/03/31 04:14:44;;;;;;;;;;;;;;;;;;5074979;28;19916;-57
2023/03/31 04:17:14;;;;;;;;;;;;;;;;;;5074218;28;20299;-56
2023/03/31 04:19:41;;;;;;;;;;;;;;;;;;5086590;28;19923;-57
2023/03/31 04:22:10;;;;;;;;;;;;;;;;;;5079065;28;19913;-57
2023/03/31 04:24:37;;;;;;;;;;;;;;;;;;5082264;28;19916;-56
2023/03/31 04:27:06;;;;;;;;;;;;;;;;;;5077684;28;19917;-56
2023/03/31 04:29:32;;;;;;;;;;;;;;;;;;5083509;28;20368;-57
2023/03/31 04:31:58;;;;;;;;;;;;;;;;;;5078846;28;19920;-56
2023/03/31 04:34:25;;;;;;;;;;;;;;;;;;5077399;28;20280;-57
2023/03/31 04:36:54;;;;;;;;;;;;;;;;;;5083183;28;20302;-58
2023/03/31 04:39:25;;;;;;;;;;;;;;;;;;5079060;28;19923;-55
2023/03/31 04:41:51;;;;;;;;;;;;;;;;;;5088495;28;20424;-56
2023/03/31 04:44:17;;;;;;;;;;;;;;;;;;5077930;28;19909;-57
2023/03/31 04:46:43;;;;;;;;;;;;;;;;;;5081708;28;19943;-57
2023/03/31 04:49:09;;;;;;;;;;;;;;;;;;5083022;28;20406;-57
2023/03/31 04:51:35;;;;;;;;;;;;;;;;;;5088654;28;19916;-56
2023/03/31 04:54:00;;;;;;;;;;;;;;;;;;5083011;28;20296;-58
2023/03/31 04:56:26;;;;;;;;;;;;;;;;;;5085810;28;19920;-57
2023/03/31 04:58:52;;;;;;;;;;;;;;;;;;5085876;28;20004;-57
2023/03/31 05:01:18;;;;;;;;;;;;;;;;;;5081439;28;19958;-57
2023/03/31 05:03:46;;;;;;;;;;;;;;;;;;5076043;28;20007;-57
2023/03/31 05:06:12;;;;;;;;;;;;;;;;;;5084807;28;19912;-57
2023/03/31 05:08:38;;;;;;;;;;;;;;;;;;5089692;28;19963;-57
2023/03/31 05:11:05;;;;;;;;;;;;;;;;;;5072698;28;20626;-57
2023/03/31 05:13:30;;;;;;;;;;;;;;;;;;5074678;28;19916;-57
2023/03/31 05:15:56;;;;;;;;;;;;;;;;;;5076089;28;20340;-57
2023/03/31 05:18:22;;;;;;;;;;;;;;;;;;5087498;28;19908;-58
2023/03/31 05:20:48;;;;;;;;;;;;;;;;;;5086029;28;20399;-56
2023/03/31 05:23:14;;;;;;;;;;;;;;;;;;5080775;28;19966;-57
2023/03/31 05:25:41;;;;;;;;;;;;;;;;;;5079186;28;19916;-57
2023/03/31 05:28:07;;;;;;;;;;;;;;;;;;5087812;28;19912;-54
2023/03/31 05:30:32;;;;;;;;;;;;;;;;;;5083345;28;19920;-56
2023/03/31 05:32:58;;;;;;;;;;;;;;;;;;5083022;28;19985;-57
2023/03/31 05:35:24;;;;;;;;;;;;;;;;;;5078303;28;19913;-57
2023/03/31 05:37:50;;;;;;;;;;;;;;;;;;5079478;28;19955;-58
2023/03/31 05:40:16;;;;;;;;;;;;;;;;;;5076633;28;19927;-57
2023/03/31 05:42:42;;;;;;;;;;;;;;;;;;5083059;28;19959;-57
2023/03/31 05:45:08;;;;;;;;;;;;;;;;;;5078758;28;19995;-57
2023/03/31 05:47:34;;;;;;;;;;;;;;;;;;5078341;28;19913;-57
2023/03/31 05:50:00;;;;;;;;;;;;;;;;;;5079694;28;19970;-56
2023/03/31 05:52:26;;;;;;;;;;;;;;;;;;5078537;28;19912;-57
2023/03/31 05:54:52;;;;;;;;;;;;;;;;;;5084551;28;19968;-57
2023/03/31 05:57:18;;;;;;;;;;;;;;;;;;5087133;28;20316;-57
2023/03/31 05:59:45;;;;;;;;;;;;;;;;;;5084110;28;19999;-57
2023/03/31 06:02:11;;;;;;;;;;;;;;;;;;5088713;28;20359;-57
2023/03/31 06:04:37;;;;;;;;;;;;;;;;;;5092896;28;19923;-57
2023/03/31 06:07:04;;;;;;;;;;;;;;;;;;5083386;28;19923;-57
2023/03/31 06:09:30;;;;;;;;;;;;;;;;;;5080383;28;19946;-57
2023/03/31 06:11:56;;;;;;;;;;;;;;;;;;5077710;28;19973;-57
2023/03/31 06:14:22;;;;;;;;;;;;;;;;;;5081653;28;20407;-57
2023/03/31 06:16:48;;;;;;;;;;;;;;;;;;5086894;28;19946;-57
2023/03/31 06:19:14;;;;;;;;;;;;;;;;;;5083451;28;19959;-56
2023/03/31 06:21:40;;;;;;;;;;;;;;;;;;5082701;28;19912;-57
2023/03/31 06:24:06;;;;;;;;;;;;;;;;;;5086961;28;19943;-57
2023/03/31 06:26:31;;;;;;;;;;;;;;;;;;5081168;28;20398;-57
2023/03/31 06:28:57;;;;;;;;;;;;;;;;;;5086152;28;19908;-57
2023/03/31 06:31:23;;;;;;;;;;;;;;;;;;5079002;28;19986;-57
2023/03/31 06:33:49;;;;;;;;;;;;;;;;;;5086962;28;19955;-56
2023/03/31 06:36:15;;;;;;;;;;;;;;;;;;5089779;28;19913;-57
2023/03/31 06:38:41;;;;;;;;;;;;;;;;;;5093801;28;19915;-57
2023/03/31 06:41:07;;;;;;;;;;;;;;;;;;5091835;28;19931;-57
2023/03/31 06:43:33;;;;;;;;;;;;;;;;;;5093761;28;20406;-57
2023/03/31 06:45:59;;;;;;;;;;;;;;;;;;5080796;28;19961;-57
2023/03/31 06:48:25;;;;;;;;;;;;;;;;;;5082718;28;19939;-57
2023/03/31 06:50:51;;;;;;;;;;;;;;;;;;5093411;28;19958;-56
2023/03/31 06:53:17;;;;;;;;;;;;;;;;;;5080636;28;19994;-57
2023/03/31 06:55:42;;;;;;;;;;;;;;;;;;5093937;28;19912;-56
2023/03/31 06:58:08;;;;;;;;;;;;;;;;;;5079760;28;20412;-57
2023/03/31 07:00:35;;;;;;;;;;;;;;;;;;5082504;28;19947;-56
2023/03/31 07:03:02;;;;;;;;;;;;;;;;;;5079452;28;20125;-57
2023/03/31 07:05:28;;;;;;;;;;;;;;;;;;5092744;28;19934;-56
2023/03/31 07:07:54;;;;;;;;;;;;;;;;;;5083130;28;19951;-57
2023/03/31 07:10:20;;;;;;;;;;;;;;;;;;5087885;28;19920;-57
2023/03/31 07:12:46;;;;;;;;;;;;;;;;;;5090850;28;19952;-57
2023/03/31 07:15:12;;;;;;;;;;;;;;;;;;5085932;28;19999;-56
2023/03/31 07:17:40;;;;;;;;;;;;;;;;;;5090918;28;19909;-57
2023/03/31 07:20:11;;;;;;;;;;;;;;;;;;5072863;28;19917;-56
2023/03/31 07:22:37;;;;;;;;;;;;;;;;;;5085245;28;20010;-57
2023/03/31 07:25:03;;;;;;;;;;;;;;;;;;5080348;28;20210;-59
2023/03/31 07:27:29;;;;;;;;;;;;;;;;;;5072414;28;19934;-59
2023/03/31 07:29:55;;;;;;;;;;;;;;;;;;5085784;28;19908;-60
2023/03/31 07:32:22;;;;;;;;;;;;;;;;;;5085316;28;19962;-60
2023/03/31 07:34:48;;;;;;;;;;;;;;;;;;5093339;28;19912;-60
2023/03/31 07:37:14;;;;;;;;;;;;;;;;;;5091336;28;19959;-59
2023/03/31 07:39:40;;;;;;;;;;;;;;;;;;5091932;28;19912;-60
2023/03/31 07:42:05;;;;;;;;;;;;;;;;;;5088286;28;19922;-60
2023/03/31 07:44:31;;;;;;;;;;;;;;;;;;5086136;28;19958;-60
2023/03/31 07:46:57;;;;;;;;;;;;;;;;;;5079576;28;20003;-60
2023/03/31 07:49:23;;;;;;;;;;;;;;;;;;5093246;28;19930;-59
2023/03/31 07:51:49;;;;;;;;;;;;;;;;;;5092714;28;20359;-60
2023/03/31 07:54:15;;;;;;;;;;;;;;;;;;5093082;28;19912;-59
2023/03/31 07:56:41;;;;;;;;;;;;;;;;;;5091440;28;19973;-59
2023/03/31 07:59:07;;;;;;;;;;;;;;;;;;5085513;28;19937;-60
2023/03/31 08:01:33;;;;;;;;;;;;;;;;;;5076580;28;19913;-60
2023/03/31 08:03:59;;;;;;;;;;;;;;;;;;5092711;28;19941;-59
2023/03/31 08:06:26;;;;;;;;;;;;;;;;;;5092507;28;20356;-60
2023/03/31 08:08:52;;;;;;;;;;;;;;;;;;5092293;28;20467;-59
2023/03/31 08:11:19;;;;;;;;;;;;;;;;;;5079324;28;19940;-59
2023/03/31 08:13:45;;;;;;;;;;;;;;;;;;5086147;28;19912;-60
2023/03/31 08:16:11;;;;;;;;;;;;;;;;;;5073976;28;19978;-60
2023/03/31 08:18:37;;;;;;;;;;;;;;;;;;5081620;28;19908;-59
2023/03/31 08:21:03;;;;;;;;;;;;;;;;;;5091928;28;19916;-61
2023/03/31 08:23:29;;;;;;;;;;;;;;;;;;5092297;28;19912;-59
2023/03/31 08:25:55;;;;;;;;;;;;;;;;;;5078471;28;20013;-59
2023/03/31 08:28:21;;;;;;;;;;;;;;;;;;5080245;28;20346;-60
2023/03/31 08:30:47;;;;;;;;;;;;;;;;;;5086122;28;19915;-59
2023/03/31 08:33:13;;;;;;;;;;;;;;;;;;5074563;28;20005;-59
2023/03/31 08:35:39;;;;;;;;;;;;;;;;;;5074737;28;19919;-60
2023/03/31 08:38:05;;;;;;;;;;;;;;;;;;5092139;28;19955;-59
2023/03/31 08:40:31;;;;;;;;;;;;;;;;;;5091806;28;19920;-60
2023/03/31 08:42:57;;;;;;;;;;;;;;;;;;5091722;28;20292;-59
2023/03/31 08:45:22;;;;;;;;;;;;;;;;;;5091661;28;19915;-59
2023/03/31 08:47:48;;;;;;;;;;;;;;;;;;5092161;28;19995;-60
2023/03/31 08:50:14;;;;;;;;;;;;;;;;;;5080003;28;19950;-60
2023/03/31 08:52:40;;;;;;;;;;;;;;;;;;5091749;28;20360;-60
2023/03/31 08:55:06;;;;;;;;;;;;;;;;;;5091721;28;20401;-60
2023/03/31 08:57:32;;;;;;;;;;;;;;;;;;5091695;28;19908;-60
2023/03/31 09:00:05;;;;;;;;;;;;;;;;;;5090811;28;19955;-59
2023/03/31 09:02:31;;;;;;;;;;;;;;;;;;5077794;28;19924;-60
2023/03/31 09:04:57;;;;;;;;;;;;;;;;;;5077403;28;20053;-59
2023/03/31 09:07:23;;;;;;;;;;;;;;;;;;5088682;28;20008;-60
2023/03/31 09:09:49;;;;;;;;;;;;;;;;;;5077499;28;19920;-60
2023/03/31 09:12:15;;;;;;;;;;;;;;;;;;5082946;28;19914;-60
2023/03/31 09:14:41;;;;;;;;;;;;;;;;;;5089423;28;20287;-60
2023/03/31 09:17:10;;;;;;;;;;;;;;;;;;5079856;28;19920;-60
2023/03/31 09:19:36;;;;;;;;;;;;;;;;;;5078264;28;19908;-60
2023/03/31 09:22:02;;;;;;;;;;;;;;;;;;5081343;28;19918;-59
2023/03/31 09:24:28;;;;;;;;;;;;;;;;;;5085660;28;20003;-60
2023/03/31 09:26:54;;;;;;;;;;;;;;;;;;5095216;28;19916;-60
2023/03/31 09:29:20;;;;;;;;;;;;;;;;;;5081659;28;19963;-60
2023/03/31 09:31:46;;;;;;;;;;;;;;;;;;5092244;28;19952;-60
2023/03/31 09:34:12;;;;;;;;;;;;;;;;;;5089251;28;19935;-59
2023/03/31 09:36:37;;;;;;;;;;;;;;;;;;5089579;28;19973;-60
2023/03/31 09:39:03;;;;;;;;;;;;;;;;;;5090830;28;20069;-60
2023/03/31 09:41:29;;;;;;;;;;;;;;;;;;5090692;28;19916;-63
2023/03/31 09:43:56;;;;;;;;;;;;;;;;;;5082007;28;19962;-60
2023/03/31 09:46:22;;;;;;;;;;;;;;;;;;5086336;28;19959;-59
2023/03/31 09:48:49;;;;;;;;;;;;;;;;;;5096982;28;19939;-59
2023/03/31 09:51:15;;;;;;;;;;;;;;;;;;5082256;28;19908;-60
2023/03/31 09:53:41;;;;;;;;;;;;;;;;;;5078187;28;20322;-60
2023/03/31 09:56:07;;;;;;;;;;;;;;;;;;5085676;28;20390;-60
2023/03/31 09:58:33;;;;;;;;;;;;;;;;;;5097584;28;20069;-59
2023/03/31 10:00:59;;;;;;;;;;;;;;;;;;5097549;28;19912;-59
2023/03/31 10:03:28;;;;;;;;;;;;;;;;;;5096659;28;19912;-60
2023/03/31 10:05:54;;;;;;;;;;;;;;;;;;5089188;28;20356;-60
2023/03/31 10:08:20;;;;;;;;;;;;;;;;;;5097876;28;19909;-59
2023/03/31 10:10:46;;;;;;;;;;;;;;;;;;5091867;28;19971;-60
2023/03/31 10:13:12;;;;;;;;;;;;;;;;;;5086950;28;19919;-60
2023/03/31 10:15:38;;;;;;;;;;;;;;;;;;5090154;28;19908;-60
2023/03/31 10:18:04;;;;;;;;;;;;;;;;;;5093566;28;20336;-59
2023/03/31 10:20:30;;;;;;;;;;;;;;;;;;5090833;28;19913;-59
2023/03/31 10:22:55;;;;;;;;;;;;;;;;;;5089895;28;19916;-60
2023/03/31 10:25:21;;;;;;;;;;;;;;;;;;5083199;28;19963;-60
2023/03/31 10:27:47;;;;;;;;;;;;;;;;;;5089931;28;19912;-59
2023/03/31 10:30:13;;;;;;;;;;;;;;;;;;5086906;28;19912;-59
2023/03/31 10:32:41;;;;;;;;;;;;;;;;;;5083498;28;19908;-60
2023/03/31 10:35:07;;;;;;;;;;;;;;;;;;5093260;28;20011;-60
2023/03/31 10:37:33;;;;;;;;;;;;;;;;;;5080552;28;19966;-59
2023/03/31 10:39:59;;;;;;;;;;;;;;;;;;5080931;28;19948;-60
2023/03/31 10:42:25;;;;;;;;;;;;;;;;;;5087867;28;20447;-60
2023/03/31 10:44:51;;;;;;;;;;;;;;;;;;5083837;28;20007;-59
2023/03/31 10:47:17;;;;;;;;;;;;;;;;;;5092451;28;19998;-59
2023/03/31 10:49:43;;;;;;;;;;;;;;;;;;5093375;28;20241;-59
2023/03/31 10:52:09;;;;;;;;;;;;;;;;;;5079167;28;19918;-60
2023/03/31 10:54:36;;;;;;;;;;;;;;;;;;5082296;28;19920;-60
2023/03/31 10:57:04;;;;;;;;;;;;;;;;;;5081836;28;19950;-61
2023/03/31 10:59:30;;;;;;;;;;;;;;;;;;5087763;28;19908;-60
2023/03/31 11:01:56;;;;;;;;;;;;;;;;;;5084270;28;20342;-60
2023/03/31 11:04:22;;;;;;;;;;;;;;;;;;5087320;28;19944;-59
2023/03/31 11:06:47;;;;;;;;;;;;;;;;;;5093603;28;20037;-59
2023/03/31 11:09:13;;;;;;;;;;;;;;;;;;5093768;28;20379;-60
2023/03/31 11:11:39;;;;;;;;;;;;;;;;;;5082421;28;20345;-60
2023/03/31 11:14:05;;;;;;;;;;;;;;;;;;5091976;28;19908;-60
2023/03/31 11:16:31;;;;;;;;;;;;;;;;;;5077938;28;19969;-60
2023/03/31 11:18:58;;;;;;;;;;;;;;;;;;5074610;28;20004;-60
2023/03/31 11:21:24;;;;;;;;;;;;;;;;;;5088577;28;19974;-59
2023/03/31 11:23:50;;;;;;;;;;;;;;;;;;5085337;28;19943;-59
2023/03/31 11:26:16;;;;;;;;;;;;;;;;;;5092943;28;19950;-61
2023/03/31 11:28:41;;;;;;;;;;;;;;;;;;5093239;28;20299;-60
2023/03/31 11:31:07;;;;;;;;;;;;;;;;;;5084325;28;19912;-60
2023/03/31 11:33:33;;;;;;;;;;;;;;;;;;5090449;28;19951;-60
2023/03/31 11:36:00;;;;;;;;;;;;;;;;;;5078942;28;20003;-60
2023/03/31 11:38:26;;;;;;;;;;;;;;;;;;5085029;28;19908;-61
2023/03/31 11:40:52;;;;;;;;;;;;;;;;;;5087952;28;19954;-60
2023/03/31 11:43:18;;;;;;;;;;;;;;;;;;5072526;28;19920;-61
2023/03/31 11:45:44;;;;;;;;;;;;;;;;;;5089452;28;20061;-60
2023/03/31 11:48:10;;;;;;;;;;;;;;;;;;5091006;28;19915;-60
2023/03/31 11:50:38;;;;;;;;;;;;;;;;;;5086200;28;20450;-61
2023/03/31 11:53:04;;;;;;;;;;;;;;;;;;5073057;28;19959;-60
2023/03/31 11:55:31;;;;;;;;;;;;;;;;;;5078128;28;19975;-61
2023/03/31 11:57:59;;;;;;;;;;;;;;;;;;5074241;28;20284;-61
2023/03/31 12:00:26;;;;;;;;;;;;;;;;;;5090399;28;19908;-61
2023/03/31 12:02:52;;;;;;;;;;;;;;;;;;5082730;28;19917;-61
2023/03/31 12:05:18;;;;;;;;;;;;;;;;;;5085590;28;19962;-60
2023/03/31 12:07:44;;;;;;;;;;;;;;;;;;5083777;28;20303;-60
2023/03/31 12:10:10;;;;;;;;;;;;;;;;;;5082524;28;19947;-60
2023/03/31 12:12:36;;;;;;;;;;;;;;;;;;5080178;28;19920;-61
2023/03/31 12:15:02;;;;;;;;;;;;;;;;;;5079159;28;20368;-61
2023/03/31 12:17:28;;;;;;;;;;;;;;;;;;5077387;28;19908;-61
2023/03/31 12:19:55;;;;;;;;;;;;;;;;;;5080902;28;19938;-61
2023/03/31 12:22:21;;;;;;;;;;;;;;;;;;5081432;28;19931;-61
2023/03/31 12:24:47;;;;;;;;;;;;;;;;;;5086660;28;20329;-61
2023/03/31 12:27:13;;;;;;;;;;;;;;;;;;5087670;28;19919;-61
2023/03/31 12:29:39;;;;;;;;;;;;;;;;;;5078575;28;19944;-61
2023/03/31 12:32:05;;;;;;;;;;;;;;;;;;5089866;28;20362;-61
2023/03/31 12:34:31;;;;;;;;;;;;;;;;;;5092233;28;19912;-61
2023/03/31 12:36:57;;;;;;;;;;;;;;;;;;5091764;28;19912;-61
2023/03/31 12:39:23;;;;;;;;;;;;;;;;;;5084767;28;19944;-61
2023/03/31 12:41:49;;;;;;;;;;;;;;;;;;5075287;28;19922;-61
2023/03/31 12:44:15;;;;;;;;;;;;;;;;;;5073886;28;19912;-61
2023/03/31 12:46:41;;;;;;;;;;;;;;;;;;5075675;28;20334;-61
2023/03/31 12:49:07;;;;;;;;;;;;;;;;;;5078097;28;19962;-60
2023/03/31 12:51:33;;;;;;;;;;;;;;;;;;5080771;28;20006;-59
2023/03/31 12:53:58;;;;;;;;;;;;;;;;;;5076750;28;19920;-60
2023/03/31 12:56:24;;;;;;;;;;;;;;;;;;5080312;28;20000;-60
2023/03/31 12:58:50;;;;;;;;;;;;;;;;;;5090727;28;20006;-61
2023/03/31 13:01:16;;;;;;;;;;;;;;;;;;5090434;28;20298;-60
2023/03/31 13:03:42;;;;;;;;;;;;;;;;;;5091496;28;19918;-60
2023/03/31 13:06:08;;;;;;;;;;;;;;;;;;5091251;28;20368;-60
2023/03/31 13:08:34;;;;;;;;;;;;;;;;;;5076419;28;19975;-60
2023/03/31 13:11:00;;;;;;;;;;;;;;;;;;5084512;28;19917;-61
2023/03/31 13:13:26;;;;;;;;;;;;;;;;;;5078304;28;19952;-61
2023/03/31 13:15:52;;;;;;;;;;;;;;;;;;5081612;28;20003;-60
2023/03/31 13:18:18;;;;;;;;;;;;;;;;;;5081139;28;19944;-60
2023/03/31 13:20:45;;;;;;;;;;;;;;;;;;5072893;28;19916;-60
2023/03/31 13:23:10;;;;;;;;;;;;;;;;;;5083041;28;19920;-60
2023/03/31 13:25:36;;;;;;;;;;;;;;;;;;5084520;28;20592;-60
2023/03/31 13:28:02;;;;;;;;;;;;;;;;;;5080882;28;19917;-61
2023/03/31 13:30:28;;;;;;;;;;;;;;;;;;5075547;28;20316;-60
2023/03/31 13:32:54;;;;;;;;;;;;;;;;;;5076293;28;19974;-60
2023/03/31 13:35:20;;;;;;;;;;;;;;;;;;5091573;28;19908;-60
2023/03/31 13:37:46;;;;;;;;;;;;;;;;;;5091239;28;19908;-60
2023/03/31 13:40:12;;;;;;;;;;;;;;;;;;5076031;28;20002;-61
2023/03/31 13:42:38;;;;;;;;;;;;;;;;;;5079929;28;20011;-60
2023/03/31 13:45:04;;;;;;;;;;;;;;;;;;5089540;28;20368;-60
2023/03/31 13:47:30;;;;;;;;;;;;;;;;;;5072501;28;19913;-60
2023/03/31 13:49:56;;;;;;;;;;;;;;;;;;5086332;28;20080;-60
2023/03/31 13:52:22;;;;;;;;;;;;;;;;;;5085708;28;19936;-60
2023/03/31 13:54:48;;;;;;;;;;;;;;;;;;5089510;28;19943;-60
2023/03/31 13:57:13;;;;;;;;;;;;;;;;;;5081338;28;19924;-60
2023/03/31 13:59:40;;;;;;;;;;;;;;;;;;5083033;28;19990;-60
2023/03/31 14:02:06;;;;;;;;;;;;;;;;;;5086473;28;19920;-61
2023/03/31 14:04:32;;;;;;;;;;;;;;;;;;5082526;28;19968;-60
2023/03/31 14:06:58;;;;;;;;;;;;;;;;;;5086807;28;20384;-60
2023/03/31 14:09:24;;;;;;;;;;;;;;;;;;5080394;28;19985;-61
2023/03/31 14:11:50;;;;;;;;;;;;;;;;;;5085364;28;20342;-60
2023/03/31 14:14:16;;;;;;;;;;;;;;;;;;5084342;28;19988;-60
2023/03/31 14:16:42;;;;;;;;;;;;;;;;;;5078863;28;19958;-60
2023/03/31 14:19:08;;;;;;;;;;;;;;;;;;5080800;28;20007;-60
2023/03/31 14:21:34;;;;;;;;;;;;;;;;;;5080002;28;19916;-60
2023/03/31 14:24:00;;;;;;;;;;;;;;;;;;5079709;28;19971;-60
2023/03/31 14:26:26;;;;;;;;;;;;;;;;;;5080637;28;19916;-61
2023/03/31 14:28:53;;;;;;;;;;;;;;;;;;5081474;28;19946;-60
2023/03/31 14:31:22;;;;;;;;;;;;;;;;;;5083897;28;19999;-61
2023/03/31 14:33:48;;;;;;;;;;;;;;;;;;5094561;28;20345;-60
2023/03/31 14:36:14;;;;;;;;;;;;;;;;;;5093604;28;19945;-61
2023/03/31 14:38:40;;;;;;;;;;;;;;;;;;5083070;28;19916;-61
2023/03/31 14:41:07;;;;;;;;;;;;;;;;;;5091443;28;19953;-60
2023/03/31 14:43:32;;;;;;;;;;;;;;;;;;5082066;28;19956;-60
2023/03/31 14:45:58;;;;;;;;;;;;;;;;;;5092254;28;19959;-60
2023/03/31 14:48:24;;;;;;;;;;;;;;;;;;5074757;28;19924;-61
2023/03/31 14:50:50;;;;;;;;;;;;;;;;;;5090879;28;19966;-60
2023/03/31 14:53:16;;;;;;;;;;;;;;;;;;5093507;28;20003;-61
2023/03/31 14:55:42;;;;;;;;;;;;;;;;;;5092590;28;20330;-61
2023/03/31 14:58:08;;;;;;;;;;;;;;;;;;5088168;28;19912;-61
2023/03/31 15:00:34;;;;;;;;;;;;;;;;;;5086033;28;19959;-60
2023/03/31 15:03:00;;;;;;;;;;;;;;;;;;5092151;28;19946;-60
2023/03/31 15:05:26;;;;;;;;;;;;;;;;;;5092409;28;19914;-60
2023/03/31 15:07:52;;;;;;;;;;;;;;;;;;5093719;28;19939;-60
2023/03/31 15:10:17;;;;;;;;;;;;;;;;;;5091030;28;20336;-60
2023/03/31 15:12:45;;;;;;;;;;;;;;;;;;5089683;28;21535;-60
2023/03/31 15:15:11;;;;;;;;;;;;;;;;;;5093853;28;19912;-61
2023/03/31 15:17:37;;;;;;;;;;;;;;;;;;5081623;28;19982;-61
2023/03/31 15:20:03;;;;;;;;;;;;;;;;;;5078566;28;20014;-60
2023/03/31 15:22:29;;;;;;;;;;;;;;;;;;5091366;28;19999;-60
2023/03/31 15:24:55;;;;;;;;;;;;;;;;;;5079421;28;19923;-60
2023/03/31 15:27:21;;;;;;;;;;;;;;;;;;5091902;28;20005;-61
2023/03/31 15:29:47;;;;;;;;;;;;;;;;;;5079297;28;19958;-60
2023/03/31 15:32:13;;;;;;;;;;;;;;;;;;5087753;28;20017;-61
2023/03/31 15:34:42;;;;;;;;;;;;;;;;;;5079248;28;20360;-60
2023/03/31 15:37:08;;;;;;;;;;;;;;;;;;5084463;28;19920;-60
2023/03/31 15:39:33;;;;;;;;;;;;;;;;;;5072728;28;19973;-61
2023/03/31 15:41:59;;;;;;;;;;;;;;;;;;5090297;28;20279;-60
2023/03/31 15:44:25;;;;;;;;;;;;;;;;;;5091782;28;19952;-61
2023/03/31 15:46:51;;;;;;;;;;;;;;;;;;5090142;28;20461;-60
2023/03/31 15:49:17;;;;;;;;;;;;;;;;;;5085822;28;19995;-60
2023/03/31 15:51:43;;;;;;;;;;;;;;;;;;5085017;28;20329;-60
2023/03/31 15:54:09;;;;;;;;;;;;;;;;;;5091961;28;19919;-60
2023/03/31 15:56:37;;;;;;;;;;;;;;;;;;5090425;28;19955;-61
2023/03/31 15:59:03;;;;;;;;;;;;;;;;;;5088062;28;19919;-61
2023/03/31 16:01:31;;;;;;;;;;;;;;;;;;5087090;28;19912;-59
2023/03/31 16:03:57;;;;;;;;;;;;;;;;;;5081944;28;19967;-60
2023/03/31 16:06:23;;;;;;;;;;;;;;;;;;5085975;28;19943;-59
2023/03/31 16:08:49;;;;;;;;;;;;;;;;;;5072844;28;19920;-59
2023/03/31 16:11:15;;;;;;;;;;;;;;;;;;5083805;28;19919;-59
2023/03/31 16:13:41;;;;;;;;;;;;;;;;;;5078138;28;19920;-60
2023/03/31 16:16:07;;;;;;;;;;;;;;;;;;5084877;28;20287;-59
2023/03/31 16:18:33;;;;;;;;;;;;;;;;;;5085183;28;19923;-59
2023/03/31 16:20:59;;;;;;;;;;;;;;;;;;5086786;28;19912;-59
2023/03/31 16:23:25;;;;;;;;;;;;;;;;;;5089990;28;19951;-59
2023/03/31 16:25:51;;;;;;;;;;;;;;;;;;5082114;28;19959;-59
2023/03/31 16:28:17;;;;;;;;;;;;;;;;;;5082175;28;20039;-59
2023/03/31 16:30:43;;;;;;;;;;;;;;;;;;5081256;28;20423;-59
2023/03/31 16:33:08;;;;;;;;;;;;;;;;;;5089672;28;19940;-59
2023/03/31 16:35:35;;;;;;;;;;;;;;;;;;5088505;28;19939;-59
2023/03/31 16:38:01;;;;;;;;;;;;;;;;;;5090879;28;20283;-59